createdAt,value
2018-05-13T00:00:02.302Z,928.86
2018-05-13T00:00:15.354Z,928.86
2018-05-13T00:00:27.834Z,928.88
2018-05-13T00:00:40.868Z,928.89
2018-05-13T00:00:53.803Z,928.87
2018-05-13T00:01:05.821Z,928.9
2018-05-13T00:01:18.364Z,928.89
2018-05-13T00:01:31.338Z,928.92
2018-05-13T00:01:44.298Z,928.89
2018-05-13T00:01:56.386Z,928.94
2018-05-13T00:02:08.441Z,928.9
2018-05-13T00:02:20.516Z,928.91
2018-05-13T00:02:33.068Z,928.87
2018-05-13T00:02:46.068Z,928.88
2018-05-13T00:02:58.153Z,928.89
2018-05-13T00:03:10.676Z,928.88
2018-05-13T00:03:23.176Z,928.93
2018-05-13T00:03:36.194Z,928.92
2018-05-13T00:03:48.668Z,928.94
2018-05-13T00:04:01.176Z,928.9
2018-05-13T00:04:13.674Z,928.94
2018-05-13T00:04:25.718Z,928.94
2018-05-13T00:04:37.755Z,928.94
2018-05-13T00:04:50.237Z,928.9
2018-05-13T00:05:03.222Z,928.92
2018-05-13T00:05:15.292Z,928.92
2018-05-13T00:05:28.462Z,928.9
2018-05-13T00:05:40.983Z,928.93
2018-05-13T00:05:53.499Z,928.93
2018-05-13T00:06:06.483Z,928.91
2018-05-13T00:06:19.065Z,928.99
2018-05-13T00:06:31.568Z,928.95
2018-05-13T00:06:44.558Z,928.97
2018-05-13T00:06:57.505Z,929.01
2018-05-13T00:07:10.434Z,928.98
2018-05-13T00:07:22.974Z,928.97
2018-05-13T00:07:35.994Z,928.96
2018-05-13T00:07:48.296Z,929.02
2018-05-13T00:08:01.395Z,928.98
2018-05-13T00:08:14.403Z,929.02
2018-05-13T00:08:27.412Z,928.97
2018-05-13T00:08:41.050Z,929.02
2018-05-13T00:08:55.500Z,928.98
2018-05-13T00:09:08.277Z,929.01
2018-05-13T00:09:21.389Z,929.02
2018-05-13T00:09:36.617Z,928.96
2018-05-13T00:09:49.511Z,928.97
2018-05-13T00:10:05.219Z,928.98
2018-05-13T00:10:17.779Z,928.96
2018-05-13T00:10:30.307Z,929
2018-05-13T00:10:43.268Z,928.96
2018-05-13T00:10:55.831Z,928.96
2018-05-13T00:11:08.321Z,928.97
2018-05-13T00:11:21.321Z,928.98
2018-05-13T00:11:33.889Z,929.02
2018-05-13T00:11:46.401Z,928.94
2018-05-13T00:11:59.388Z,928.99
2018-05-13T00:12:11.905Z,928.98
2018-05-13T00:12:24.403Z,928.98
2018-05-13T00:12:37.411Z,928.98
2018-05-13T00:12:49.981Z,928.96
2018-05-13T00:13:01.986Z,928.96
2018-05-13T00:13:14.041Z,928.95
2018-05-13T00:13:26.576Z,928.98
2018-05-13T00:13:39.205Z,928.96
2018-05-13T00:13:52.169Z,928.98
2018-05-13T00:14:04.734Z,929.01
2018-05-13T00:14:17.721Z,928.93
2018-05-13T00:14:30.701Z,929.01
2018-05-13T00:14:42.743Z,928.99
2018-05-13T00:14:55.278Z,929.01
2018-05-13T00:15:07.755Z,929.01
2018-05-13T00:15:20.690Z,929.01
2018-05-13T00:15:33.698Z,928.98
2018-05-13T00:15:46.214Z,929
2018-05-13T00:15:59.215Z,929.02
2018-05-13T00:16:11.795Z,928.96
2018-05-13T00:16:24.768Z,928.99
2018-05-13T00:16:37.814Z,929.01
2018-05-13T00:16:49.826Z,928.97
2018-05-13T00:17:02.827Z,928.98
2018-05-13T00:17:15.349Z,929
2018-05-13T00:17:28.323Z,928.99
2018-05-13T00:17:41.217Z,928.99
2018-05-13T00:17:54.030Z,928.98
2018-05-13T00:18:06.547Z,928.97
2018-05-13T00:18:19.067Z,928.99
2018-05-13T00:18:31.596Z,928.97
2018-05-13T00:18:44.582Z,928.94
2018-05-13T00:18:57.559Z,928.95
2018-05-13T00:19:09.596Z,928.91
2018-05-13T00:19:21.159Z,928.96
2018-05-13T00:19:33.178Z,928.94
2018-05-13T00:19:46.166Z,928.93
2018-05-13T00:19:58.637Z,928.95
2018-05-13T00:20:10.645Z,928.96
2018-05-13T00:20:23.135Z,928.93
2018-05-13T00:20:36.138Z,928.93
2018-05-13T00:20:49.102Z,928.94
2018-05-13T00:21:02.122Z,928.95
2018-05-13T00:21:14.178Z,928.95
2018-05-13T00:21:27.151Z,929.01
2018-05-13T00:21:39.198Z,928.98
2018-05-13T00:21:52.144Z,929
2018-05-13T00:22:05.130Z,928.97
2018-05-13T00:22:18.126Z,928.96
2018-05-13T00:22:30.610Z,928.99
2018-05-13T00:22:43.553Z,928.98
2018-05-13T00:22:56.518Z,928.99
2018-05-13T00:23:09.045Z,928.98
2018-05-13T00:23:21.619Z,928.98
2018-05-13T00:23:33.667Z,929
2018-05-13T00:23:46.621Z,928.99
2018-05-13T00:23:59.056Z,929
2018-05-13T00:24:12.002Z,929
2018-05-13T00:24:24.977Z,928.99
2018-05-13T00:24:37.941Z,929.01
2018-05-13T00:24:50.952Z,929.01
2018-05-13T00:25:03.884Z,929.03
2018-05-13T00:25:16.904Z,929.06
2018-05-13T00:25:28.936Z,929.05
2018-05-13T00:25:41.409Z,929.04
2018-05-13T00:25:53.958Z,929.03
2018-05-13T00:26:06.905Z,929.08
2018-05-13T00:26:19.473Z,929.05
2018-05-13T00:26:31.990Z,929.04
2018-05-13T00:26:44.486Z,929.05
2018-05-13T00:26:57.485Z,929.05
2018-05-13T00:27:09.559Z,929.07
2018-05-13T00:27:21.645Z,929.04
2018-05-13T00:27:34.122Z,929.03
2018-05-13T00:27:46.646Z,929.04
2018-05-13T00:27:59.605Z,929.03
2018-05-13T00:28:12.085Z,929.02
2018-05-13T00:28:25.062Z,929.01
2018-05-13T00:28:37.600Z,929.05
2018-05-13T00:28:50.069Z,929.01
2018-05-13T00:29:02.164Z,929.05
2018-05-13T00:29:14.711Z,929.02
2018-05-13T00:29:27.740Z,929.06
2018-05-13T00:29:40.235Z,929.09
2018-05-13T00:29:53.211Z,929.04
2018-05-13T00:30:05.653Z,929.09
2018-05-13T00:30:18.602Z,929.07
2018-05-13T00:30:31.133Z,929.05
2018-05-13T00:30:44.076Z,929.11
2018-05-13T00:30:57.079Z,929.06
2018-05-13T00:31:09.634Z,929.06
2018-05-13T00:31:22.133Z,929.08
2018-05-13T00:31:33.738Z,929.07
2018-05-13T00:31:46.712Z,929.07
2018-05-13T00:31:59.673Z,929.09
2018-05-13T00:32:12.203Z,929.07
2018-05-13T00:32:24.748Z,929.1
2018-05-13T00:32:37.736Z,929.05
2018-05-13T00:32:50.708Z,929.07
2018-05-13T00:33:02.740Z,929.1
2018-05-13T00:33:15.749Z,929.1
2018-05-13T00:33:28.752Z,929.09
2018-05-13T00:33:40.821Z,929.08
2018-05-13T00:33:53.880Z,929.09
2018-05-13T00:34:06.316Z,929.1
2018-05-13T00:34:19.283Z,929.12
2018-05-13T00:34:31.799Z,929.09
2018-05-13T00:34:44.823Z,929.09
2018-05-13T00:34:57.822Z,929.06
2018-05-13T00:35:10.734Z,929.1
2018-05-13T00:35:23.705Z,929.08
2018-05-13T00:35:35.775Z,929.08
2018-05-13T00:35:48.269Z,929.05
2018-05-13T00:36:00.749Z,929.08
2018-05-13T00:36:13.309Z,929.11
2018-05-13T00:36:26.320Z,929.09
2018-05-13T00:36:39.376Z,929.07
2018-05-13T00:36:51.449Z,929.07
2018-05-13T00:37:04.400Z,929.09
2018-05-13T00:37:16.439Z,929.1
2018-05-13T00:37:28.946Z,929.06
2018-05-13T00:37:40.111Z,929.12
2018-05-13T00:37:53.038Z,929.08
2018-05-13T00:38:06.129Z,929.1
2018-05-13T00:38:19.168Z,929.04
2018-05-13T00:38:32.214Z,929.09
2018-05-13T00:38:45.162Z,929.11
2018-05-13T00:38:58.086Z,929.05
2018-05-13T00:39:10.614Z,929.07
2018-05-13T00:39:23.116Z,929.07
2018-05-13T00:39:35.616Z,929.08
2018-05-13T00:39:48.570Z,929.04
2018-05-13T00:40:01.552Z,929.07
2018-05-13T00:40:14.564Z,929.04
2018-05-13T00:40:27.121Z,929.04
2018-05-13T00:40:40.055Z,929.02
2018-05-13T00:40:53.031Z,929.07
2018-05-13T00:41:04.606Z,929.06
2018-05-13T00:41:16.707Z,929.04
2018-05-13T00:41:29.236Z,929.06
2018-05-13T00:41:41.271Z,929.07
2018-05-13T00:41:53.828Z,929.05
2018-05-13T00:42:06.831Z,929.06
2018-05-13T00:42:19.392Z,929.06
2018-05-13T00:42:31.926Z,929.07
2018-05-13T00:42:44.412Z,929.05
2018-05-13T00:42:55.968Z,929.03
2018-05-13T00:43:08.945Z,929.01
2018-05-13T00:43:21.016Z,929.01
2018-05-13T00:43:33.575Z,929.07
2018-05-13T00:43:46.093Z,929.06
2018-05-13T00:43:58.613Z,929.03
2018-05-13T00:44:11.604Z,929.04
2018-05-13T00:44:24.528Z,929.02
2018-05-13T00:44:37.102Z,929
2018-05-13T00:44:49.194Z,929.01
2018-05-13T00:45:01.707Z,929
2018-05-13T00:45:14.692Z,929.03
2018-05-13T00:45:27.724Z,929.05
2018-05-13T00:45:40.240Z,929.04
2018-05-13T00:45:53.198Z,929.01
2018-05-13T00:46:05.723Z,929.05
2018-05-13T00:46:18.731Z,929.05
2018-05-13T00:46:31.734Z,929.03
2018-05-13T00:46:44.724Z,929.04
2018-05-13T00:46:57.232Z,929.01
2018-05-13T00:47:09.316Z,929.03
2018-05-13T00:47:21.833Z,929.04
2018-05-13T00:47:34.346Z,929.05
2018-05-13T00:47:47.340Z,929.03
2018-05-13T00:48:00.292Z,929.06
2018-05-13T00:48:13.266Z,929.06
2018-05-13T00:48:26.364Z,929.05
2018-05-13T00:48:38.969Z,929.05
2018-05-13T00:48:51.962Z,929
2018-05-13T00:49:04.479Z,929.05
2018-05-13T00:49:16.982Z,929.05
2018-05-13T00:49:29.975Z,929.06
2018-05-13T00:49:42.514Z,929.09
2018-05-13T00:49:55.479Z,929.08
2018-05-13T00:50:08.025Z,929.06
2018-05-13T00:50:20.506Z,929.04
2018-05-13T00:50:33.558Z,929.05
2018-05-13T00:50:46.368Z,929.07
2018-05-13T00:50:58.905Z,929.07
2018-05-13T00:51:11.456Z,929.04
2018-05-13T00:51:23.545Z,929.07
2018-05-13T00:51:36.565Z,929.08
2018-05-13T00:51:49.080Z,929.09
2018-05-13T00:52:02.005Z,929.1
2018-05-13T00:52:14.054Z,929.08
2018-05-13T00:52:26.987Z,929.07
2018-05-13T00:52:39.548Z,929.1
2018-05-13T00:52:52.471Z,929.05
2018-05-13T00:53:04.511Z,929.09
2018-05-13T00:53:17.034Z,929.09
2018-05-13T00:53:30.056Z,929.04
2018-05-13T00:53:43.049Z,929.08
2018-05-13T00:53:55.553Z,929.08
2018-05-13T00:54:08.474Z,929.04
2018-05-13T00:54:21.399Z,929.05
2018-05-13T00:54:33.866Z,929.06
2018-05-13T00:54:46.819Z,929.04
2018-05-13T00:54:59.800Z,929.05
2018-05-13T00:55:12.770Z,929.05
2018-05-13T00:55:24.347Z,929.05
2018-05-13T00:55:36.892Z,929.04
2018-05-13T00:55:49.423Z,929.01
2018-05-13T00:56:02.423Z,929.07
2018-05-13T00:56:14.480Z,929.06
2018-05-13T00:56:27.021Z,929.09
2018-05-13T00:56:39.556Z,929.04
2018-05-13T00:56:52.516Z,929.07
2018-05-13T00:57:04.954Z,929.06
2018-05-13T00:57:16.932Z,929.04
2018-05-13T00:57:29.446Z,929.07
2018-05-13T00:57:42.455Z,929.05
2018-05-13T00:57:54.495Z,929.04
2018-05-13T00:58:06.985Z,929.03
2018-05-13T00:58:19.885Z,929.06
2018-05-13T00:58:32.846Z,929.06
2018-05-13T00:58:45.842Z,929.08
2018-05-13T00:58:58.334Z,929.04
2018-05-13T00:59:10.354Z,929.05
2018-05-13T00:59:23.395Z,929.09
2018-05-13T00:59:36.370Z,929.1
2018-05-13T00:59:48.891Z,929.1
2018-05-13T01:00:01.847Z,929.12
2018-05-13T01:00:14.362Z,929.13
2018-05-13T01:00:27.364Z,929.13
2018-05-13T01:00:40.320Z,929.09
2018-05-13T01:00:52.841Z,929.08
2018-05-13T01:01:05.337Z,929.09
2018-05-13T01:01:18.287Z,929.11
2018-05-13T01:01:31.291Z,929.11
2018-05-13T01:01:43.785Z,929.09
2018-05-13T01:01:56.317Z,929.12
2018-05-13T01:02:09.259Z,929.11
2018-05-13T01:02:22.361Z,929.1
2018-05-13T01:02:35.339Z,929.09
2018-05-13T01:02:48.563Z,929.11
2018-05-13T01:03:01.683Z,929.1
2018-05-13T01:03:14.624Z,929.14
2018-05-13T01:03:26.669Z,929.11
2018-05-13T01:03:39.224Z,929.11
2018-05-13T01:03:52.188Z,929.1
2018-05-13T01:04:04.695Z,929.16
2018-05-13T01:04:17.296Z,929.14
2018-05-13T01:04:29.820Z,929.12
2018-05-13T01:04:42.776Z,929.09
2018-05-13T01:04:55.771Z,929.11
2018-05-13T01:05:08.237Z,929.11
2018-05-13T01:05:20.717Z,929.14
2018-05-13T01:05:33.678Z,929.15
2018-05-13T01:05:45.748Z,929.15
2018-05-13T01:05:58.255Z,929.13
2018-05-13T01:06:10.793Z,929.12
2018-05-13T01:06:23.751Z,929.11
2018-05-13T01:06:36.253Z,929.16
2018-05-13T01:06:49.187Z,929.12
2018-05-13T01:07:02.110Z,929.15
2018-05-13T01:07:15.102Z,929.14
2018-05-13T01:07:27.646Z,929.12
2018-05-13T01:07:40.142Z,929.13
2018-05-13T01:07:53.070Z,929.1
2018-05-13T01:08:06.058Z,929.15
2018-05-13T01:08:19.045Z,929.11
2018-05-13T01:08:31.544Z,929.15
2018-05-13T01:08:44.469Z,929.16
2018-05-13T01:08:57.022Z,929.15
2018-05-13T01:09:09.504Z,929.18
2018-05-13T01:09:21.979Z,929.13
2018-05-13T01:09:33.590Z,929.15
2018-05-13T01:09:46.572Z,929.13
2018-05-13T01:09:59.590Z,929.16
2018-05-13T01:10:12.617Z,929.16
2018-05-13T01:10:25.175Z,929.18
2018-05-13T01:10:38.123Z,929.22
2018-05-13T01:10:50.221Z,929.16
2018-05-13T01:11:02.765Z,929.2
2018-05-13T01:11:15.761Z,929.16
2018-05-13T01:11:28.243Z,929.16
2018-05-13T01:11:40.758Z,929.18
2018-05-13T01:11:53.250Z,929.19
2018-05-13T01:12:04.901Z,929.19
2018-05-13T01:12:17.981Z,929.21
2018-05-13T01:12:30.454Z,929.18
2018-05-13T01:12:43.358Z,929.19
2018-05-13T01:12:55.887Z,929.19
2018-05-13T01:13:08.394Z,929.2
2018-05-13T01:13:20.877Z,929.22
2018-05-13T01:13:32.447Z,929.23
2018-05-13T01:13:44.921Z,929.21
2018-05-13T01:13:57.463Z,929.21
2018-05-13T01:14:10.483Z,929.23
2018-05-13T01:14:23.437Z,929.22
2018-05-13T01:14:35.473Z,929.19
2018-05-13T01:14:47.975Z,929.21
2018-05-13T01:15:00.994Z,929.23
2018-05-13T01:15:12.579Z,929.23
2018-05-13T01:15:24.660Z,929.22
2018-05-13T01:15:37.674Z,929.23
2018-05-13T01:15:50.194Z,929.25
2018-05-13T01:16:03.143Z,929.24
2018-05-13T01:16:15.271Z,929.24
2018-05-13T01:16:27.358Z,929.26
2018-05-13T01:16:40.283Z,929.27
2018-05-13T01:16:53.258Z,929.29
2018-05-13T01:17:05.775Z,929.24
2018-05-13T01:17:17.800Z,929.23
2018-05-13T01:17:30.737Z,929.25
2018-05-13T01:17:43.721Z,929.24
2018-05-13T01:17:56.704Z,929.26
2018-05-13T01:18:08.978Z,929.27
2018-05-13T01:18:21.418Z,929.28
2018-05-13T01:18:34.613Z,929.22
2018-05-13T01:18:47.118Z,929.28
2018-05-13T01:18:59.180Z,929.25
2018-05-13T01:19:11.675Z,929.23
2018-05-13T01:19:24.700Z,929.25
2018-05-13T01:19:37.173Z,929.24
2018-05-13T01:19:50.188Z,929.23
2018-05-13T01:20:03.231Z,929.24
2018-05-13T01:20:15.785Z,929.23
2018-05-13T01:20:28.788Z,929.21
2018-05-13T01:20:41.758Z,929.23
2018-05-13T01:20:54.342Z,929.21
2018-05-13T01:21:06.852Z,929.19
2018-05-13T01:21:19.337Z,929.2
2018-05-13T01:21:31.422Z,929.2
2018-05-13T01:21:43.920Z,929.21
2018-05-13T01:21:56.935Z,929.2
2018-05-13T01:22:09.365Z,929.18
2018-05-13T01:22:22.338Z,929.19
2018-05-13T01:22:34.814Z,929.21
2018-05-13T01:22:47.277Z,929.21
2018-05-13T01:23:00.289Z,929.23
2018-05-13T01:23:13.320Z,929.22
2018-05-13T01:23:25.812Z,929.18
2018-05-13T01:23:38.808Z,929.24
2018-05-13T01:23:51.806Z,929.22
2018-05-13T01:24:04.802Z,929.23
2018-05-13T01:24:17.793Z,929.25
2018-05-13T01:24:30.331Z,929.23
2018-05-13T01:24:42.879Z,929.28
2018-05-13T01:24:55.387Z,929.26
2018-05-13T01:25:08.424Z,929.26
2018-05-13T01:25:20.872Z,929.26
2018-05-13T01:25:33.319Z,929.23
2018-05-13T01:25:45.852Z,929.25
2018-05-13T01:25:58.360Z,929.22
2018-05-13T01:26:11.264Z,929.27
2018-05-13T01:26:24.291Z,929.23
2018-05-13T01:26:37.246Z,929.22
2018-05-13T01:26:50.233Z,929.24
2018-05-13T01:27:02.300Z,929.24
2018-05-13T01:27:14.870Z,929.27
2018-05-13T01:27:27.840Z,929.26
2018-05-13T01:27:40.307Z,929.27
2018-05-13T01:27:52.844Z,929.24
2018-05-13T01:28:05.378Z,929.22
2018-05-13T01:28:18.416Z,929.27
2018-05-13T01:28:31.403Z,929.22
2018-05-13T01:28:43.840Z,929.25
2018-05-13T01:28:56.859Z,929.23
2018-05-13T01:29:09.353Z,929.24
2018-05-13T01:29:22.294Z,929.21
2018-05-13T01:29:34.350Z,929.25
2018-05-13T01:29:47.303Z,929.22
2018-05-13T01:29:59.840Z,929.22
2018-05-13T01:30:12.362Z,929.2
2018-05-13T01:30:25.380Z,929.22
2018-05-13T01:30:38.356Z,929.22
2018-05-13T01:30:51.290Z,929.26
2018-05-13T01:31:04.252Z,929.26
2018-05-13T01:31:17.283Z,929.24
2018-05-13T01:31:30.255Z,929.23
2018-05-13T01:31:43.272Z,929.23
2018-05-13T01:31:55.809Z,929.2
2018-05-13T01:32:08.767Z,929.18
2018-05-13T01:32:21.765Z,929.23
2018-05-13T01:32:34.734Z,929.22
2018-05-13T01:32:47.679Z,929.23
2018-05-13T01:33:00.657Z,929.22
2018-05-13T01:33:14.205Z,929.24
2018-05-13T01:33:27.179Z,929.24
2018-05-13T01:33:40.142Z,929.23
2018-05-13T01:33:53.186Z,929.24
2018-05-13T01:34:05.759Z,929.23
2018-05-13T01:34:18.768Z,929.22
2018-05-13T01:34:31.272Z,929.22
2018-05-13T01:34:43.744Z,929.23
2018-05-13T01:34:56.200Z,929.23
2018-05-13T01:35:08.274Z,929.22
2018-05-13T01:35:20.798Z,929.23
2018-05-13T01:35:33.284Z,929.25
2018-05-13T01:35:46.260Z,929.25
2018-05-13T01:35:59.263Z,929.26
2018-05-13T01:36:11.793Z,929.24
2018-05-13T01:36:24.783Z,929.25
2018-05-13T01:36:37.735Z,929.24
2018-05-13T01:36:50.223Z,929.25
2018-05-13T01:37:02.279Z,929.24
2018-05-13T01:37:15.309Z,929.23
2018-05-13T01:37:28.249Z,929.23
2018-05-13T01:37:40.289Z,929.23
2018-05-13T01:37:53.285Z,929.23
2018-05-13T01:38:05.408Z,929.21
2018-05-13T01:38:17.971Z,929.19
2018-05-13T01:38:30.951Z,929.23
2018-05-13T01:38:43.971Z,929.21
2018-05-13T01:38:56.454Z,929.23
2018-05-13T01:39:09.518Z,929.22
2018-05-13T01:39:22.045Z,929.22
2018-05-13T01:39:35.022Z,929.21
2018-05-13T01:39:47.948Z,929.21
2018-05-13T01:40:00.940Z,929.2
2018-05-13T01:40:12.938Z,929.21
2018-05-13T01:40:25.869Z,929.19
2018-05-13T01:40:38.810Z,929.2
2018-05-13T01:40:51.304Z,929.2
2018-05-13T01:41:03.336Z,929.2
2018-05-13T01:41:16.262Z,929.19
2018-05-13T01:41:28.353Z,929.23
2018-05-13T01:41:41.313Z,929.23
2018-05-13T01:41:54.360Z,929.25
2018-05-13T01:42:06.891Z,929.23
2018-05-13T01:42:19.383Z,929.23
2018-05-13T01:42:32.364Z,929.22
2018-05-13T01:42:44.383Z,929.21
2018-05-13T01:42:56.463Z,929.23
2018-05-13T01:43:08.893Z,929.23
2018-05-13T01:43:21.358Z,929.23
2018-05-13T01:43:33.847Z,929.25
2018-05-13T01:43:46.817Z,929.23
2018-05-13T01:43:59.328Z,929.23
2018-05-13T01:44:11.354Z,929.27
2018-05-13T01:44:23.888Z,929.26
2018-05-13T01:44:36.372Z,929.31
2018-05-13T01:44:49.285Z,929.27
2018-05-13T01:45:02.248Z,929.26
2018-05-13T01:45:14.696Z,929.24
2018-05-13T01:45:27.246Z,929.25
2018-05-13T01:45:39.316Z,929.25
2018-05-13T01:45:52.285Z,929.24
2018-05-13T01:46:03.846Z,929.27
2018-05-13T01:46:16.868Z,929.23
2018-05-13T01:46:29.879Z,929.22
2018-05-13T01:46:42.849Z,929.24
2018-05-13T01:46:55.316Z,929.24
2018-05-13T01:47:07.852Z,929.23
2018-05-13T01:47:20.403Z,929.25
2018-05-13T01:47:32.943Z,929.25
2018-05-13T01:47:45.887Z,929.23
2018-05-13T01:47:57.966Z,929.24
2018-05-13T01:48:10.969Z,929.26
2018-05-13T01:48:24.215Z,929.23
2018-05-13T01:48:37.221Z,929.21
2018-05-13T01:48:50.160Z,929.25
2018-05-13T01:49:02.710Z,929.2
2018-05-13T01:49:15.224Z,929.19
2018-05-13T01:49:27.267Z,929.25
2018-05-13T01:49:40.265Z,929.22
2018-05-13T01:49:52.775Z,929.24
2018-05-13T01:50:05.307Z,929.19
2018-05-13T01:50:17.785Z,929.22
2018-05-13T01:50:30.313Z,929.22
2018-05-13T01:50:43.348Z,929.23
2018-05-13T01:50:56.394Z,929.21
2018-05-13T01:51:08.411Z,929.21
2018-05-13T01:51:21.377Z,929.24
2018-05-13T01:51:33.890Z,929.23
2018-05-13T01:51:46.913Z,929.22
2018-05-13T01:51:59.900Z,929.22
2018-05-13T01:52:11.946Z,929.2
2018-05-13T01:52:24.393Z,929.2
2018-05-13T01:52:37.321Z,929.17
2018-05-13T01:52:50.272Z,929.18
2018-05-13T01:53:02.803Z,929.21
2018-05-13T01:53:15.820Z,929.19
2018-05-13T01:53:27.889Z,929.19
2018-05-13T01:53:40.901Z,929.16
2018-05-13T01:53:53.850Z,929.18
2018-05-13T01:54:05.888Z,929.19
2018-05-13T01:54:18.918Z,929.19
2018-05-13T01:54:31.417Z,929.23
2018-05-13T01:54:44.418Z,929.21
2018-05-13T01:54:57.423Z,929.22
2018-05-13T01:55:10.367Z,929.21
2018-05-13T01:55:23.380Z,929.21
2018-05-13T01:55:36.368Z,929.21
2018-05-13T01:55:48.916Z,929.2
2018-05-13T01:56:01.864Z,929.24
2018-05-13T01:56:14.882Z,929.22
2018-05-13T01:56:27.406Z,929.24
2018-05-13T01:56:40.334Z,929.24
2018-05-13T01:56:53.283Z,929.21
2018-05-13T01:57:05.817Z,929.24
2018-05-13T01:57:18.854Z,929.25
2018-05-13T01:57:31.822Z,929.21
2018-05-13T01:57:44.803Z,929.24
2018-05-13T01:57:57.329Z,929.25
2018-05-13T01:58:10.365Z,929.23
2018-05-13T01:58:23.363Z,929.25
2018-05-13T01:58:35.860Z,929.26
2018-05-13T01:58:47.877Z,929.27
2018-05-13T01:58:59.927Z,929.23
2018-05-13T01:59:12.914Z,929.22
2018-05-13T01:59:24.992Z,929.22
2018-05-13T01:59:37.937Z,929.24
2018-05-13T01:59:50.942Z,929.22
2018-05-13T02:00:03.473Z,929.25
2018-05-13T02:00:16.469Z,929.26
2018-05-13T02:00:28.973Z,929.26
2018-05-13T02:00:41.939Z,929.26
2018-05-13T02:00:54.508Z,929.25
2018-05-13T02:01:06.567Z,929.25
2018-05-13T02:01:19.071Z,929.24
2018-05-13T02:01:31.608Z,929.26
2018-05-13T02:01:44.135Z,929.26
2018-05-13T02:01:57.110Z,929.27
2018-05-13T02:02:09.611Z,929.26
2018-05-13T02:02:22.123Z,929.24
2018-05-13T02:02:35.092Z,929.28
2018-05-13T02:02:47.609Z,929.25
2018-05-13T02:03:00.114Z,929.25
2018-05-13T02:03:12.626Z,929.26
2018-05-13T02:03:25.620Z,929.29
2018-05-13T02:03:39.367Z,929.24
2018-05-13T02:03:52.318Z,929.25
2018-05-13T02:04:05.223Z,929.24
2018-05-13T02:04:18.251Z,929.22
2018-05-13T02:04:31.286Z,929.27
2018-05-13T02:04:44.297Z,929.27
2018-05-13T02:04:56.818Z,929.27
2018-05-13T02:05:09.812Z,929.23
2018-05-13T02:05:22.375Z,929.24
2018-05-13T02:05:35.333Z,929.22
2018-05-13T02:05:48.322Z,929.25
2018-05-13T02:06:01.332Z,929.23
2018-05-13T02:06:13.841Z,929.23
2018-05-13T02:06:26.884Z,929.26
2018-05-13T02:06:38.445Z,929.19
2018-05-13T02:06:51.444Z,929.19
2018-05-13T02:07:04.419Z,929.21
2018-05-13T02:07:17.430Z,929.25
2018-05-13T02:07:29.919Z,929.21
2018-05-13T02:07:42.906Z,929.23
2018-05-13T02:07:55.903Z,929.22
2018-05-13T02:08:08.406Z,929.2
2018-05-13T02:08:20.434Z,929.2
2018-05-13T02:08:33.486Z,929.22
2018-05-13T02:08:46.521Z,929.21
2018-05-13T02:08:59.011Z,929.18
2018-05-13T02:09:11.550Z,929.22
2018-05-13T02:09:24.560Z,929.18
2018-05-13T02:09:36.617Z,929.2
2018-05-13T02:09:49.578Z,929.21
2018-05-13T02:10:02.057Z,929.18
2018-05-13T02:10:14.551Z,929.18
2018-05-13T02:10:27.546Z,929.19
2018-05-13T02:10:40.042Z,929.23
2018-05-13T02:10:52.587Z,929.2
2018-05-13T02:11:05.521Z,929.18
2018-05-13T02:11:17.543Z,929.2
2018-05-13T02:11:30.637Z,929.19
2018-05-13T02:11:43.114Z,929.24
2018-05-13T02:11:55.657Z,929.2
2018-05-13T02:12:08.644Z,929.21
2018-05-13T02:12:21.707Z,929.19
2018-05-13T02:12:34.719Z,929.21
2018-05-13T02:12:47.288Z,929.24
2018-05-13T02:12:59.763Z,929.22
2018-05-13T02:13:12.265Z,929.23
2018-05-13T02:13:24.746Z,929.21
2018-05-13T02:13:37.199Z,929.21
2018-05-13T02:13:50.174Z,929.22
2018-05-13T02:14:02.205Z,929.18
2018-05-13T02:14:14.214Z,929.2
2018-05-13T02:14:26.711Z,929.18
2018-05-13T02:14:39.613Z,929.2
2018-05-13T02:14:52.609Z,929.16
2018-05-13T02:15:04.194Z,929.18
2018-05-13T02:15:16.696Z,929.19
2018-05-13T02:15:28.252Z,929.2
2018-05-13T02:15:40.778Z,929.18
2018-05-13T02:15:53.321Z,929.2
2018-05-13T02:16:05.846Z,929.18
2018-05-13T02:16:18.377Z,929.15
2018-05-13T02:16:29.493Z,929.15
2018-05-13T02:16:42.023Z,929.16
2018-05-13T02:16:54.532Z,929.16
2018-05-13T02:17:07.072Z,929.14
2018-05-13T02:17:19.573Z,929.14
2018-05-13T02:17:32.079Z,929.15
2018-05-13T02:17:44.563Z,929.13
2018-05-13T02:17:57.541Z,929.17
2018-05-13T02:18:09.132Z,929.14
2018-05-13T02:18:21.175Z,929.14
2018-05-13T02:18:34.838Z,929.12
2018-05-13T02:18:47.381Z,929.1
2018-05-13T02:19:00.402Z,929.15
2018-05-13T02:19:12.946Z,929.11
2018-05-13T02:19:25.449Z,929.13
2018-05-13T02:19:37.060Z,929.11
2018-05-13T02:19:50.048Z,929.11
2018-05-13T02:20:02.554Z,929.1
2018-05-13T02:20:15.061Z,929.09
2018-05-13T02:20:28.058Z,929.06
2018-05-13T02:20:41.053Z,929.07
2018-05-13T02:20:53.590Z,929.05
2018-05-13T02:21:06.551Z,929.04
2018-05-13T02:21:19.075Z,929.06
2018-05-13T02:21:32.087Z,929.06
2018-05-13T02:21:45.086Z,929.04
2018-05-13T02:21:57.575Z,929.04
2018-05-13T02:22:10.089Z,929.02
2018-05-13T02:22:22.633Z,929.02
2018-05-13T02:22:35.122Z,929.04
2018-05-13T02:22:48.156Z,929.05
2018-05-13T02:23:01.147Z,929.03
2018-05-13T02:23:13.139Z,929.06
2018-05-13T02:23:25.661Z,929.06
2018-05-13T02:23:38.188Z,929.02
2018-05-13T02:23:50.709Z,929.02
2018-05-13T02:24:03.757Z,929.02
2018-05-13T02:24:16.724Z,929.01
2018-05-13T02:24:28.294Z,929.02
2018-05-13T02:24:40.759Z,929.01
2018-05-13T02:24:53.238Z,929.03
2018-05-13T02:25:05.770Z,929.06
2018-05-13T02:25:18.327Z,929.05
2018-05-13T02:25:31.334Z,929.04
2018-05-13T02:25:43.874Z,929.04
2018-05-13T02:25:56.406Z,929.03
2018-05-13T02:26:07.970Z,929.03
2018-05-13T02:26:20.959Z,929.03
2018-05-13T02:26:33.503Z,929.03
2018-05-13T02:26:45.991Z,929.04
2018-05-13T02:26:59.004Z,929.06
2018-05-13T02:27:11.486Z,929.09
2018-05-13T02:27:24.479Z,929.06
2018-05-13T02:27:36.953Z,929.11
2018-05-13T02:27:49.439Z,929.06
2018-05-13T02:28:01.891Z,929.05
2018-05-13T02:28:13.929Z,929.07
2018-05-13T02:28:26.846Z,929.11
2018-05-13T02:28:39.753Z,929.07
2018-05-13T02:28:52.800Z,929.06
2018-05-13T02:29:05.269Z,929.04
2018-05-13T02:29:18.235Z,929.03
2018-05-13T02:29:30.780Z,929.04
2018-05-13T02:29:43.778Z,929.07
2018-05-13T02:29:56.719Z,929.01
2018-05-13T02:30:08.796Z,929.09
2018-05-13T02:30:21.806Z,929.08
2018-05-13T02:30:34.757Z,929.07
2018-05-13T02:30:47.275Z,929.03
2018-05-13T02:31:00.347Z,929.08
2018-05-13T02:31:12.920Z,929.04
2018-05-13T02:31:24.971Z,929.06
2018-05-13T02:31:37.482Z,929.07
2018-05-13T02:31:49.991Z,929
2018-05-13T02:32:02.543Z,929.08
2018-05-13T02:32:15.043Z,929.03
2018-05-13T02:32:28.008Z,929.06
2018-05-13T02:32:40.457Z,929.03
2018-05-13T02:32:52.950Z,929.02
2018-05-13T02:33:05.472Z,929.03
2018-05-13T02:33:17.952Z,929.06
2018-05-13T02:33:30.925Z,929.06
2018-05-13T02:33:44.306Z,929.08
2018-05-13T02:33:56.815Z,929.06
2018-05-13T02:34:09.274Z,929.03
2018-05-13T02:34:22.288Z,929.06
2018-05-13T02:34:34.348Z,929.07
2018-05-13T02:34:47.346Z,929.05
2018-05-13T02:35:00.355Z,929.09
2018-05-13T02:35:12.854Z,929.07
2018-05-13T02:35:25.883Z,929.11
2018-05-13T02:35:38.442Z,929.11
2018-05-13T02:35:51.020Z,929.11
2018-05-13T02:36:03.954Z,929.08
2018-05-13T02:36:16.912Z,929.06
2018-05-13T02:36:29.441Z,929.04
2018-05-13T02:36:42.459Z,929.07
2018-05-13T02:36:55.487Z,929.06
2018-05-13T02:37:07.529Z,929.07
2018-05-13T02:37:19.607Z,929.04
2018-05-13T02:37:31.660Z,929.07
2018-05-13T02:37:44.601Z,929.07
2018-05-13T02:37:57.141Z,929.12
2018-05-13T02:38:09.680Z,929.1
2018-05-13T02:38:22.189Z,929.12
2018-05-13T02:38:35.196Z,929.07